createdAt,value
2023-03-22T00:03:17.997Z,4.67
2023-03-22T00:09:01.317Z,5.42
2023-03-22T00:14:28.241Z,3.64
2023-03-22T00:20:12.843Z,3.86
2023-03-22T00:25:59.311Z,5.27
2023-03-22T00:31:22.050Z,3.60
2023-03-22T00:36:47.906Z,4.51
2023-03-22T00:48:21.548Z,2.71
2023-03-22T00:53:43.841Z,2.83
2023-03-22T00:59:03.100Z,4.45
2023-03-22T01:04:27.911Z,4.12
2023-03-22T01:09:53.924Z,2.85
2023-03-22T01:15:17.480Z,4.07
2023-03-22T01:20:43.632Z,4.24
2023-03-22T01:26:08.060Z,2.94
2023-03-22T01:31:32.674Z,3.17
2023-03-22T01:36:58.257Z,3.64
2023-03-22T01:42:21.222Z,3.15
2023-03-22T01:47:46.210Z,5.15
2023-03-22T01:53:10.421Z,4.01
2023-03-22T01:58:33.852Z,3.29
2023-03-22T02:03:57.398Z,3.62
2023-03-22T02:09:39.135Z,5.08
2023-03-22T02:15:32.832Z,4.86
2023-03-22T02:20:58.295Z,3.31
2023-03-22T02:27:13.212Z,4.74
2023-03-22T02:32:47.143Z,3.71
2023-03-22T02:38:41.684Z,4.55
2023-03-22T02:44:19.022Z,3.87
2023-03-22T02:49:44.164Z,4.17
2023-03-22T02:55:10.672Z,4.40
2023-03-22T03:00:37.085Z,4.64
2023-03-22T03:06:02.575Z,4.68
2023-03-22T03:11:24.315Z,4.85
2023-03-22T03:16:47.864Z,5.28
2023-03-22T03:22:15.588Z,5.03
2023-03-22T03:27:46.131Z,5.84
2023-03-22T03:33:13.985Z,3.52
2023-03-22T03:38:38.119Z,3.50
2023-03-22T03:44:04.752Z,3.45
2023-03-22T03:50:07.084Z,4.57
2023-03-22T03:55:30.433Z,3.58
2023-03-22T04:00:55.796Z,5.47
2023-03-22T04:06:17.984Z,4.39
2023-03-22T04:11:43.606Z,5.04
2023-03-22T04:17:07.456Z,4.64
2023-03-22T04:22:31.702Z,5.04
2023-03-22T04:27:56.572Z,5.94
2023-03-22T04:33:59.550Z,5.33
2023-03-22T04:39:23.267Z,5.62
2023-03-22T04:44:48.492Z,4.64
2023-03-22T04:50:34.644Z,6.65
2023-03-22T04:55:58.163Z,4.71
2023-03-22T05:01:25.124Z,5.51
2023-03-22T05:06:49.780Z,4.45
2023-03-22T05:12:14.015Z,5.94
2023-03-22T05:17:39.237Z,4.57
2023-03-22T05:23:05.565Z,4.64
2023-03-22T05:28:29.466Z,4.53
2023-03-22T05:33:54.952Z,5.25
2023-03-22T05:39:19.896Z,3.71
2023-03-22T05:44:45.461Z,4.92
2023-03-22T05:50:03.265Z,6.07
2023-03-22T05:55:29.833Z,3.94
2023-03-22T06:00:54.401Z,5.30
2023-03-22T06:06:23.889Z,4.20
2023-03-22T06:11:49.513Z,4.35
2023-03-22T06:17:11.520Z,5.25
2023-03-22T06:22:37.678Z,3.81
2023-03-22T06:28:01.786Z,3.95
2023-03-22T06:33:27.830Z,2.77
2023-03-22T06:38:53.299Z,4.45
2023-03-22T06:44:19.663Z,4.51
2023-03-22T06:49:46.276Z,3.99
2023-03-22T06:55:11.124Z,4.71
2023-03-22T07:00:37.902Z,4.06
2023-03-22T07:06:41.685Z,4.01
2023-03-22T07:12:04.207Z,3.39
2023-03-22T07:17:29.932Z,5.01
2023-03-22T07:22:55.465Z,4.37
2023-03-22T07:29:28.549Z,4.85
2023-03-22T07:34:55.712Z,3.95
2023-03-22T07:40:20.592Z,3.45
2023-03-22T07:45:44.688Z,4.43
2023-03-22T07:51:09.068Z,4.89
2023-03-22T07:56:31.206Z,4.00
2023-03-22T08:01:54.877Z,4.87
2023-03-22T08:07:36.431Z,4.01
2023-03-22T08:13:02.749Z,3.92
2023-03-22T08:18:29.595Z,3.71
2023-03-22T08:23:56.619Z,3.11
2023-03-22T08:29:21.840Z,3.13
2023-03-22T08:34:49.393Z,3.78
2023-03-22T08:40:15.240Z,3.97
2023-03-22T08:45:40.971Z,4.50
2023-03-22T08:51:19.279Z,3.78
2023-03-22T08:56:46.469Z,3.23
2023-03-22T09:02:32.710Z,3.98
2023-03-22T09:08:00.645Z,2.46
2023-03-22T09:13:46.032Z,2.45
2023-03-22T09:19:10.250Z,4.62
2023-03-22T09:24:35.900Z,2.67
2023-03-22T09:30:02.386Z,2.07
2023-03-22T09:35:31.058Z,2.45
2023-03-22T09:40:59.951Z,0.51
2023-03-22T09:46:27.076Z,0.98
2023-03-22T09:51:58.300Z,0.85
2023-03-22T09:57:23.354Z,1.27
2023-03-22T10:02:48.326Z,0.86
2023-03-22T10:08:21.331Z,1.25
2023-03-22T10:13:52.192Z,1.00
2023-03-22T10:19:22.633Z,0.95
2023-03-22T10:24:43.055Z,2.12
2023-03-22T10:30:06.725Z,0.99
2023-03-22T10:35:31.597Z,1.30
2023-03-22T10:40:57.088Z,3.08
2023-03-22T10:46:23.159Z,0.93
2023-03-22T10:51:44.502Z,1.01
2023-03-22T10:57:12.670Z,1.18
2023-03-22T11:02:39.185Z,0.77
2023-03-22T11:08:06.618Z,1.15
2023-03-22T11:13:32.907Z,1.01
2023-03-22T11:18:56.002Z,1.32
2023-03-22T11:24:21.783Z,0.92
2023-03-22T11:29:47.816Z,1.51
2023-03-22T11:35:13.853Z,0.61
2023-03-22T11:40:38.579Z,0.81
2023-03-22T11:46:21.493Z,1.91
2023-03-22T11:51:45.345Z,2.45
2023-03-22T11:57:10.209Z,1.17
2023-03-22T12:02:38.200Z,2.95
2023-03-22T12:08:32.131Z,1.33
2023-03-22T12:13:57.885Z,1.77
2023-03-22T12:19:23.086Z,2.17
2023-03-22T12:25:00.452Z,0.56
2023-03-22T12:30:29.494Z,0.72
2023-03-22T12:35:53.962Z,0.38
2023-03-22T12:41:18.827Z,1.42
2023-03-22T12:46:45.681Z,1.32
2023-03-22T12:52:11.896Z,0.62
2023-03-22T12:57:35.648Z,1.35
2023-03-22T13:03:01.462Z,0.59
2023-03-22T13:08:34.037Z,2.32
2023-03-22T13:14:23.477Z,1.92
2023-03-22T13:20:12.397Z,1.04
2023-03-22T13:25:48.453Z,1.58
2023-03-22T13:31:24.093Z,1.04
2023-03-22T13:36:54.732Z,0.97
2023-03-22T13:42:21.394Z,1.54
2023-03-22T13:47:50.067Z,2.52
2023-03-22T13:53:19.029Z,0.55
2023-03-22T13:58:42.723Z,1.70
2023-03-22T14:04:12.366Z,3.17
2023-03-22T14:09:37.801Z,0.50
2023-03-22T14:15:05.938Z,0.61
2023-03-22T14:20:30.265Z,0.74
2023-03-22T14:47:29.509Z,0.86
2023-03-22T14:52:57.369Z,2.40
2023-03-22T14:58:40.460Z,1.39
2023-03-22T15:04:05.240Z,0.88
2023-03-22T15:09:29.751Z,0.88
2023-03-22T15:14:49.817Z,1.07
2023-03-22T15:20:15.245Z,1.15
2023-03-22T15:25:43.465Z,0.56
2023-03-22T15:31:07.460Z,1.19
2023-03-22T15:36:35.134Z,0.71
2023-03-22T15:41:59.890Z,1.45
2023-03-22T15:47:31.214Z,1.38
2023-03-22T15:53:06.204Z,1.39
2023-03-22T15:58:38.191Z,1.73
2023-03-22T16:04:22.054Z,1.52
2023-03-22T16:09:48.505Z,1.29
2023-03-22T16:15:10.745Z,1.06
2023-03-22T16:20:34.598Z,0.47
2023-03-22T16:26:00.277Z,2.82
2023-03-22T16:31:27.572Z,1.28
2023-03-22T16:36:53.858Z,1.07
2023-03-22T16:42:16.961Z,0.79
2023-03-22T16:47:42.883Z,6.25
2023-03-22T16:53:11.210Z,1.94
2023-03-22T16:58:38.122Z,2.38
2023-03-22T17:04:01.106Z,1.88
2023-03-22T17:09:27.872Z,0.79
2023-03-22T17:14:54.255Z,2.24
2023-03-22T17:20:20.242Z,2.97
2023-03-22T17:25:43.246Z,3.83
2023-03-22T17:31:08.541Z,2.08
2023-03-22T17:36:57.305Z,2.56
2023-03-22T17:42:21.940Z,2.07
2023-03-22T17:47:49.357Z,3.17
2023-03-22T17:53:29.239Z,1.88
2023-03-22T17:58:41.623Z,3.87
2023-03-22T18:04:23.823Z,3.01
2023-03-22T18:09:48.017Z,1.47
2023-03-22T18:15:13.287Z,2.06
2023-03-22T18:20:56.976Z,1.37
2023-03-22T18:26:04.052Z,2.37
2023-03-22T18:31:28.327Z,3.43
2023-03-22T18:36:54.584Z,2.02
2023-03-22T18:42:25.233Z,1.46
2023-03-22T18:47:46.912Z,2.27
2023-03-22T18:53:18.566Z,2.84
2023-03-22T18:58:57.963Z,2.72
2023-03-22T19:04:21.924Z,0.97
2023-03-22T19:09:47.562Z,1.52
2023-03-22T19:15:34.405Z,1.58
2023-03-22T19:20:40.166Z,3.13
2023-03-22T19:26:07.157Z,2.42
2023-03-22T19:31:35.318Z,2.10
2023-03-22T19:37:00.244Z,1.90
2023-03-22T19:42:28.042Z,3.99
2023-03-22T19:48:02.121Z,1.71
2023-03-22T19:53:57.573Z,2.50
2023-03-22T19:58:43.131Z,2.23
2023-03-22T20:04:07.471Z,1.70
2023-03-22T20:09:33.147Z,4.26
2023-03-22T20:14:59.461Z,1.26
2023-03-22T20:20:22.237Z,1.04
2023-03-22T20:25:44.987Z,1.17
2023-03-22T20:31:07.817Z,1.69
2023-03-22T20:37:39.621Z,1.20
2023-03-22T20:43:03.751Z,1.26
2023-03-22T20:48:29.560Z,1.55
2023-03-22T20:53:53.958Z,0.92
2023-03-22T20:59:19.533Z,1.70
2023-03-22T21:04:44.428Z,0.65
2023-03-22T21:10:07.445Z,0.99
2023-03-22T21:15:34.380Z,0.57
2023-03-22T21:20:58.456Z,0.66
2023-03-22T21:26:21.088Z,1.26
2023-03-22T21:31:46.379Z,0.92
2023-03-22T21:37:12.248Z,0.99
2023-03-22T21:42:37.381Z,3.02
2023-03-22T21:48:03.959Z,1.31
2023-03-22T21:53:40.916Z,1.22
2023-03-22T21:59:08.165Z,2.22
2023-03-22T22:04:33.600Z,0.91
2023-03-22T22:09:59.457Z,0.82
2023-03-22T22:15:51.463Z,1.25
2023-03-22T22:21:14.643Z,0.62
2023-03-22T22:26:42.068Z,2.66
2023-03-22T22:32:08.084Z,1.72
2023-03-22T22:37:33.577Z,1.95
2023-03-22T22:43:00.882Z,0.97
2023-03-22T22:48:25.504Z,1.03
2023-03-22T22:53:50.655Z,1.56
2023-03-22T22:59:17.296Z,2.09
2023-03-22T23:04:42.002Z,1.36
2023-03-22T23:10:07.034Z,1.41
2023-03-22T23:15:33.994Z,3.01
2023-03-22T23:20:57.428Z,2.09
2023-03-22T23:26:22.509Z,2.51
2023-03-22T23:31:49.691Z,1.26
2023-03-22T23:37:14.059Z,1.86
2023-03-22T23:42:37.074Z,1.60
2023-03-22T23:48:04.586Z,1.44
2023-03-22T23:53:30.797Z,1.86
2023-03-22T23:58:55.955Z,1.25
